Richfield, Wisconsin
Current Conditions -  °F | °C
As of 4:10 AM on Tuesday 21 Oct 2014 (Local Time) from KETB Reporting Station
Overcast Overcast  
Wind Chill: 39°   Ceiling: 4500
Heat Index: 43°   Visibility: 10mi
Dew Point: 36°   Wind: 7mph
Humidity: 76%   Direction: 340°NNW
Pressure: 30.07"   Gusts: NA
Location:  43.26°N, 88.19°W
Report Text: KETB 210910Z AUTO 34006KT 10SM OVC045 06/02 A3007 RMK AO2
Loading
Personal Weather Stations






























Interactive Weather Map New forecast layout! Learn more

10-Day Weather Forecast

Advertisements
Track Severe Weather on mobile